Time;durP1;ratioP1;P1;durP2;ratioP2;P2;SDS_P1;SDS_P2;PMS_P1;PMS_P2;Temp;Humidity;BMP_temperature;BMP_pressure;BME280_temperature;BME280_humidity;BME280_pressure;Samples;Min_cycle;Max_cycle;Signal;HPM_P1;HPM_P2
2024/01/01 00:00:48;;;;;;;261.92;157.75;;;;;;;;;;5013804;28;20109;-75
2024/01/01 00:03:13;;;;;;;345.13;224.23;;;;;;;;;;5013623;28;20050;-75
2024/01/01 00:05:38;;;;;;;258.85;161.50;;;;;;;;;;5014354;28;20172;-76
2024/01/01 00:08:04;;;;;;;144.27;79.22;;;;;;;;;;5013938;28;20147;-76
2024/01/01 00:10:29;;;;;;;135.10;80.38;;;;;;;;;;5013921;28;20032;-76
2024/01/01 00:12:54;;;;;;;264.80;154.70;;;;;;;;;;5013651;28;20036;-76
2024/01/01 00:15:19;;;;;;;250.40;142.82;;;;;;;;;;5013742;28;20028;-76
2024/01/01 00:17:45;;;;;;;165.65;92.70;;;;;;;;;;5013536;28;20080;-75
2024/01/01 00:20:10;;;;;;;471.55;312.60;;;;;;;;;;5013408;28;20463;-76
2024/01/01 00:22:36;;;;;;;220.40;128.85;;;;;;;;;;5012059;28;20437;-75
2024/01/01 00:25:02;;;;;;;243.23;145.77;;;;;;;;;;5013125;28;20018;-76
2024/01/01 00:27:27;;;;;;;924.55;672.90;;;;;;;;;;5012675;28;20014;-76
2024/01/01 00:29:52;;;;;;;325.08;219.60;;;;;;;;;;5011265;28;20132;-76
2024/01/01 00:32:18;;;;;;;286.27;188.15;;;;;;;;;;5012735;28;20104;-78
2024/01/01 00:34:44;;;;;;;281.85;186.95;;;;;;;;;;5012695;28;20024;-76
2024/01/01 00:37:10;;;;;;;178.57;107.22;;;;;;;;;;5012635;28;20025;-76
2024/01/01 00:39:35;;;;;;;439.98;275.42;;;;;;;;;;5012852;28;20034;-76
2024/01/01 00:42:00;;;;;;;477.92;310.52;;;;;;;;;;5012507;28;20079;-75
2024/01/01 00:44:26;;;;;;;757.73;602.30;;;;;;;;;;5012479;28;20049;-79
2024/01/01 00:46:51;;;;;;;179.77;110.78;;;;;;;;;;5012234;28;20392;-76
2024/01/01 00:49:16;;;;;;;109.93;67.45;;;;;;;;;;5012324;28;20066;-79
2024/01/01 00:51:42;;;;;;;245.47;168.97;;;;;;;;;;5012366;28;20029;-77
2024/01/01 00:54:07;;;;;;;151.27;102.72;;;;;;;;;;5012442;28;20252;-80
2024/01/01 00:56:32;;;;;;;179.15;118.18;;;;;;;;;;5012506;28;20108;-78
2024/01/01 00:58:57;;;;;;;164.05;102.53;;;;;;;;;;5012078;28;20034;-78
2024/01/01 01:01:22;;;;;;;149.40;94.35;;;;;;;;;;5012065;28;20109;-77
2024/01/01 01:03:48;;;;;;;429.42;263.63;;;;;;;;;;5012102;28;20121;-77
2024/01/01 01:06:13;;;;;;;213.05;120.65;;;;;;;;;;5012411;28;20331;-78
2024/01/01 01:08:38;;;;;;;98.22;53.45;;;;;;;;;;5012001;28;20045;-78
2024/01/01 01:11:03;;;;;;;64.40;34.83;;;;;;;;;;5011806;28;20036;-77
2024/01/01 01:13:29;;;;;;;56.25;27.52;;;;;;;;;;5010931;28;20022;-76
2024/01/01 01:15:54;;;;;;;124.03;69.70;;;;;;;;;;5011978;28;20026;-77
2024/01/01 01:18:19;;;;;;;84.22;46.88;;;;;;;;;;5010774;28;20265;-77
2024/01/01 01:20:44;;;;;;;79.57;48.03;;;;;;;;;;5011697;28;20021;-77
2024/01/01 01:23:10;;;;;;;243.82;155.75;;;;;;;;;;5012331;28;20698;-77
2024/01/01 01:25:36;;;;;;;385.48;267.15;;;;;;;;;;5012054;28;20098;-79
2024/01/01 01:28:02;;;;;;;107.85;60.00;;;;;;;;;;5012215;28;20105;-77
2024/01/01 01:30:27;;;;;;;114.45;66.38;;;;;;;;;;5011897;28;20169;-79
2024/01/01 01:32:52;;;;;;;66.10;32.10;;;;;;;;;;5011583;28;20092;-77
2024/01/01 01:35:17;;;;;;;209.80;123.00;;;;;;;;;;5011996;28;20104;-79
2024/01/01 01:37:43;;;;;;;133.33;60.50;;;;;;;;;;5010573;28;20776;-76
2024/01/01 01:40:09;;;;;;;56.25;29.15;;;;;;;;;;5012220;28;20275;-77
2024/01/01 01:42:34;;;;;;;85.57;49.38;;;;;;;;;;5012048;28;20029;-77
2024/01/01 01:44:59;;;;;;;117.72;61.00;;;;;;;;;;5011969;28;20026;-77
2024/01/01 01:47:24;;;;;;;93.93;57.67;;;;;;;;;;5011956;28;20030;-77
2024/01/01 01:49:50;;;;;;;290.88;175.65;;;;;;;;;;5011625;28;20780;-78
2024/01/01 01:52:16;;;;;;;216.85;128.32;;;;;;;;;;5011953;28;20334;-77
2024/01/01 01:54:44;;;;;;;221.70;125.55;;;;;;;;;;5012303;28;20391;-77
2024/01/01 01:57:09;;;;;;;55.30;29.50;;;;;;;;;;5011752;28;20160;-77
2024/01/01 01:59:34;;;;;;;95.47;56.83;;;;;;;;;;5015501;28;20030;-77
2024/01/01 02:02:00;;;;;;;74.40;38.55;;;;;;;;;;5015522;28;20053;-79
2024/01/01 02:04:25;;;;;;;74.53;40.92;;;;;;;;;;5015246;28;20030;-78
2024/01/01 02:06:50;;;;;;;66.47;35.83;;;;;;;;;;5015050;28;20026;-79
2024/01/01 02:09:15;;;;;;;143.85;72.65;;;;;;;;;;5013553;28;20022;-79
2024/01/01 02:11:41;;;;;;;145.10;76.68;;;;;;;;;;5014293;28;20075;-79
2024/01/01 02:14:10;;;;;;;52.47;24.85;;;;;;;;;;5015267;28;20036;-78
2024/01/01 02:16:36;;;;;;;69.43;34.97;;;;;;;;;;5015517;28;20367;-77
2024/01/01 02:19:01;;;;;;;436.83;261.58;;;;;;;;;;5015524;28;20066;-77
2024/01/01 02:21:27;;;;;;;94.60;54.00;;;;;;;;;;5015498;28;20022;-77
2024/01/01 02:23:53;;;;;;;196.52;113.90;;;;;;;;;;5015578;28;20026;-78
2024/01/01 02:26:18;;;;;;;109.88;56.72;;;;;;;;;;5015126;28;20026;-76
2024/01/01 02:28:43;;;;;;;96.90;47.47;;;;;;;;;;5014673;28;20390;-78
2024/01/01 02:31:08;;;;;;;70.40;35.88;;;;;;;;;;5015098;28;20431;-76
2024/01/01 02:33:33;;;;;;;31.40;12.60;;;;;;;;;;5015234;28;20422;-77
2024/01/01 02:35:59;;;;;;;80.55;41.70;;;;;;;;;;5014930;28;20265;-78
2024/01/01 02:38:24;;;;;;;30.65;10.13;;;;;;;;;;5014766;28;20018;-77
2024/01/01 02:40:49;;;;;;;23.88;8.70;;;;;;;;;;5014580;28;20022;-77
2024/01/01 02:43:14;;;;;;;28.50;11.07;;;;;;;;;;5014613;28;20022;-77
2024/01/01 02:45:39;;;;;;;40.57;16.63;;;;;;;;;;5014900;28;20026;-77
2024/01/01 02:48:05;;;;;;;37.90;15.80;;;;;;;;;;5013147;28;20265;-78
2024/01/01 02:50:30;;;;;;;64.15;28.40;;;;;;;;;;5015427;28;20489;-76
2024/01/01 02:52:56;;;;;;;108.82;60.55;;;;;;;;;;5014511;28;20022;-78
2024/01/01 02:55:21;;;;;;;88.85;47.95;;;;;;;;;;5014650;28;20025;-79
2024/01/01 02:57:46;;;;;;;61.00;22.90;;;;;;;;;;5015646;28;20053;-77
2024/01/01 03:00:14;;;;;;;42.97;13.95;;;;;;;;;;5014258;28;20065;-77
2024/01/01 03:02:40;;;;;;;43.80;20.17;;;;;;;;;;5014514;28;20029;-76
2024/01/01 03:05:06;;;;;;;76.45;41.40;;;;;;;;;;5013055;28;20117;-77
2024/01/01 03:07:32;;;;;;;36.38;17.88;;;;;;;;;;5014271;28;20018;-76
2024/01/01 03:09:57;;;;;;;42.97;21.80;;;;;;;;;;5014178;28;20042;-78
2024/01/01 03:12:22;;;;;;;53.33;24.73;;;;;;;;;;5014328;28;20030;-77
2024/01/01 03:14:48;;;;;;;90.50;43.70;;;;;;;;;;5013459;28;20265;-76
2024/01/01 03:17:13;;;;;;;29.45;6.38;;;;;;;;;;5014278;28;20261;-76
2024/01/01 03:19:39;;;;;;;153.82;77.07;;;;;;;;;;5014625;28;20026;-76
2024/01/01 03:22:04;;;;;;;46.53;18.95;;;;;;;;;;5014059;28;20532;-76
2024/01/01 03:24:29;;;;;;;35.88;8.55;;;;;;;;;;5014741;28;20055;-76
2024/01/01 03:26:54;;;;;;;29.05;9.00;;;;;;;;;;5013238;28;20374;-76
2024/01/01 03:29:20;;;;;;;32.88;6.30;;;;;;;;;;5013651;28;20460;-76
2024/01/01 03:31:45;;;;;;;49.35;18.67;;;;;;;;;;5014471;28;20033;-76
2024/01/01 03:34:10;;;;;;;39.17;9.43;;;;;;;;;;5013916;28;20037;-76
2024/01/01 03:36:35;;;;;;;45.67;12.43;;;;;;;;;;5014103;28;20037;-76
2024/01/01 03:39:01;;;;;;;38.90;8.85;;;;;;;;;;5014628;28;20037;-75
2024/01/01 03:41:26;;;;;;;38.92;8.52;;;;;;;;;;5013936;28;20124;-76
2024/01/01 03:43:51;;;;;;;24.02;5.90;;;;;;;;;;5013846;28;20044;-76
2024/01/01 03:46:17;;;;;;;138.65;68.00;;;;;;;;;;5013657;28;20022;-76
2024/01/01 03:48:42;;;;;;;32.58;10.32;;;;;;;;;;5013768;28;20443;-76
2024/01/01 03:51:07;;;;;;;24.80;5.85;;;;;;;;;;5013564;28;20525;-77
2024/01/01 03:53:32;;;;;;;24.23;4.38;;;;;;;;;;5014317;28;20053;-76
2024/01/01 03:55:58;;;;;;;17.23;3.45;;;;;;;;;;5013705;28;20061;-76
2024/01/01 03:58:23;;;;;;;16.95;4.13;;;;;;;;;;5014642;28;20030;-76
2024/01/01 04:00:48;;;;;;;18.33;3.90;;;;;;;;;;5013725;28;20446;-76
2024/01/01 04:03:14;;;;;;;33.85;13.32;;;;;;;;;;5014095;28;20030;-76
2024/01/01 04:05:39;;;;;;;31.50;4.17;;;;;;;;;;5012585;28;20030;-76
2024/01/01 04:08:04;;;;;;;21.42;3.83;;;;;;;;;;5013631;28;20621;-77
2024/01/01 04:10:30;;;;;;;16.27;3.75;;;;;;;;;;5013225;28;20037;-76
2024/01/01 04:12:55;;;;;;;18.40;4.00;;;;;;;;;;5013595;28;20411;-76
2024/01/01 04:15:20;;;;;;;22.20;3.53;;;;;;;;;;5013792;28;20296;-77
2024/01/01 04:17:45;;;;;;;19.55;3.83;;;;;;;;;;5013608;28;20261;-76
2024/01/01 04:20:10;;;;;;;27.13;3.50;;;;;;;;;;5013182;28;20084;-76
2024/01/01 04:22:40;;;;;;;56.70;19.35;;;;;;;;;;4996173;28;20025;-76
2024/01/01 04:25:06;;;;;;;22.98;4.43;;;;;;;;;;5013171;28;20029;-76
2024/01/01 04:27:31;;;;;;;26.98;3.72;;;;;;;;;;5011576;28;20497;-76
2024/01/01 04:29:56;;;;;;;23.73;3.35;;;;;;;;;;5012807;28;20033;-76
2024/01/01 04:32:21;;;;;;;25.80;8.07;;;;;;;;;;5011491;28;20033;-76
2024/01/01 04:34:47;;;;;;;18.38;3.97;;;;;;;;;;5013013;28;20034;-79
2024/01/01 04:37:12;;;;;;;21.33;3.88;;;;;;;;;;5013079;28;20034;-77
2024/01/01 04:39:37;;;;;;;25.35;4.50;;;;;;;;;;5012421;28;20029;-77
2024/01/01 04:42:03;;;;;;;24.27;4.43;;;;;;;;;;4995168;28;20032;-77
2024/01/01 04:44:29;;;;;;;17.20;3.83;;;;;;;;;;5012748;28;20272;-77
2024/01/01 04:46:54;;;;;;;21.38;3.95;;;;;;;;;;5013381;28;20105;-78
2024/01/01 04:49:19;;;;;;;21.88;4.45;;;;;;;;;;5012578;28;20034;-77
2024/01/01 04:51:44;;;;;;;21.30;5.32;;;;;;;;;;5011248;28;20053;-77
2024/01/01 04:54:10;;;;;;;20.70;3.40;;;;;;;;;;5012558;28;20018;-78
2024/01/01 04:56:35;;;;;;;24.15;3.38;;;;;;;;;;5012075;28;20064;-77
2024/01/01 04:59:01;;;;;;;21.33;3.10;;;;;;;;;;5012405;28;20052;-78
2024/01/01 05:01:27;;;;;;;28.25;3.53;;;;;;;;;;5010687;28;20344;-78
2024/01/01 05:03:52;;;;;;;13.38;2.95;;;;;;;;;;5012729;28;20057;-76
2024/01/01 05:06:17;;;;;;;21.67;3.10;;;;;;;;;;5012303;28;20532;-77
2024/01/01 05:08:43;;;;;;;24.42;5.07;;;;;;;;;;5011122;28;20030;-76
2024/01/01 05:11:08;;;;;;;14.95;3.20;;;;;;;;;;5012782;28;20163;-76
2024/01/01 05:13:33;;;;;;;19.98;3.17;;;;;;;;;;5011972;28;20073;-77
2024/01/01 05:15:58;;;;;;;17.70;3.20;;;;;;;;;;5012767;28;20132;-76
2024/01/01 05:18:24;;;;;;;24.42;3.10;;;;;;;;;;5012201;28;20022;-76
2024/01/01 05:20:49;;;;;;;18.73;3.35;;;;;;;;;;5012329;28;20030;-75
2024/01/01 05:23:14;;;;;;;12.35;3.10;;;;;;;;;;5011031;28;20045;-77
2024/01/01 05:25:39;;;;;;;24.65;2.97;;;;;;;;;;5012117;28;20022;-78
2024/01/01 05:28:07;;;;;;;14.63;3.53;;;;;;;;;;5011928;28;20084;-76
2024/01/01 05:30:33;;;;;;;18.60;3.47;;;;;;;;;;5011824;28;20272;-76
2024/01/01 05:32:58;;;;;;;19.25;3.30;;;;;;;;;;5013405;28;20074;-76
2024/01/01 05:35:23;;;;;;;25.35;3.28;;;;;;;;;;5016305;28;20022;-76
2024/01/01 05:37:48;;;;;;;18.15;2.60;;;;;;;;;;5016188;28;20060;-75
2024/01/01 05:40:14;;;;;;;26.83;4.15;;;;;;;;;;5016163;28;20076;-76
2024/01/01 05:42:39;;;;;;;12.63;3.20;;;;;;;;;;5015673;28;20052;-75
2024/01/01 05:45:05;;;;;;;10.45;2.25;;;;;;;;;;5016209;28;20105;-75
2024/01/01 05:47:30;;;;;;;18.30;3.13;;;;;;;;;;5015892;28;20049;-77
2024/01/01 05:49:56;;;;;;;21.23;2.93;;;;;;;;;;5015782;28;20025;-77
2024/01/01 05:52:21;;;;;;;13.30;3.43;;;;;;;;;;5015729;28;20725;-77
2024/01/01 05:54:47;;;;;;;22.20;3.13;;;;;;;;;;5015838;28;20267;-76
2024/01/01 05:57:13;;;;;;;10.95;2.38;;;;;;;;;;5015621;28;20177;-75
2024/01/01 05:59:38;;;;;;;13.10;3.22;;;;;;;;;;5016234;28;20461;-76
2024/01/01 06:02:03;;;;;;;15.35;2.70;;;;;;;;;;5015943;28;20057;-75
2024/01/01 06:04:28;;;;;;;9.48;3.00;;;;;;;;;;5015454;28;20026;-75
2024/01/01 06:06:54;;;;;;;19.00;3.27;;;;;;;;;;5015803;28;20014;-75
2024/01/01 06:09:19;;;;;;;12.30;3.30;;;;;;;;;;5015381;28;20360;-76
2024/01/01 06:11:44;;;;;;;18.88;3.30;;;;;;;;;;5015340;28;20327;-74
2024/01/01 06:14:09;;;;;;;16.13;3.70;;;;;;;;;;5015345;28;20018;-76
2024/01/01 06:16:35;;;;;;;14.32;3.13;;;;;;;;;;5015226;28;20025;-75
2024/01/01 06:19:00;;;;;;;12.15;2.40;;;;;;;;;;5015366;28;20374;-78
2024/01/01 06:21:26;;;;;;;12.75;2.28;;;;;;;;;;5015138;28;20069;-77
2024/01/01 06:23:51;;;;;;;14.27;2.05;;;;;;;;;;5015642;28;20385;-77
2024/01/01 06:26:17;;;;;;;16.25;2.55;;;;;;;;;;5015545;28;20109;-77
2024/01/01 06:28:42;;;;;;;16.43;3.13;;;;;;;;;;5015171;28;20501;-78
2024/01/01 06:31:07;;;;;;;12.23;2.08;;;;;;;;;;5015616;28;20343;-76
2024/01/01 06:33:32;;;;;;;19.27;2.88;;;;;;;;;;5015056;28;20463;-75
2024/01/01 06:35:58;;;;;;;19.38;2.70;;;;;;;;;;5015059;28;20030;-77
2024/01/01 06:38:23;;;;;;;10.75;2.90;;;;;;;;;;5015105;28;20100;-76
2024/01/01 06:40:48;;;;;;;36.23;3.37;;;;;;;;;;5015050;28;20064;-78
2024/01/01 06:43:14;;;;;;;10.10;2.03;;;;;;;;;;5014688;28;20284;-76
2024/01/01 06:45:39;;;;;;;13.43;2.28;;;;;;;;;;5014713;28;20738;-76
2024/01/01 06:48:04;;;;;;;14.70;3.03;;;;;;;;;;5015664;28;20105;-78
2024/01/01 06:50:30;;;;;;;12.68;2.30;;;;;;;;;;5013644;28;20034;-75
2024/01/01 06:52:55;;;;;;;19.45;2.55;;;;;;;;;;5014983;28;20084;-78
2024/01/01 06:55:22;;;;;;;10.45;2.55;;;;;;;;;;5014966;28;20174;-79
2024/01/01 06:57:47;;;;;;;13.88;2.85;;;;;;;;;;5014670;28;20132;-78
2024/01/01 07:00:13;;;;;;;13.33;2.20;;;;;;;;;;5015189;28;20486;-78
2024/01/01 07:02:38;;;;;;;17.58;2.83;;;;;;;;;;5014630;28;20300;-79
2024/01/01 07:05:03;;;;;;;19.38;3.17;;;;;;;;;;5014457;28;20105;-78
2024/01/01 07:07:28;;;;;;;22.67;3.60;;;;;;;;;;5015191;28;20149;-78
2024/01/01 07:09:54;;;;;;;16.15;2.60;;;;;;;;;;5014371;28;20040;-76
2024/01/01 07:12:20;;;;;;;15.90;2.83;;;;;;;;;;4996854;28;20030;-75
2024/01/01 07:14:47;;;;;;;14.27;2.08;;;;;;;;;;5014445;28;20429;-76
2024/01/01 07:17:12;;;;;;;16.50;2.50;;;;;;;;;;5015202;28;20030;-76
2024/01/01 07:19:38;;;;;;;13.68;2.78;;;;;;;;;;5014176;28;20030;-77
2024/01/01 07:22:04;;;;;;;10.85;2.42;;;;;;;;;;5014322;28;20029;-76
2024/01/01 07:24:29;;;;;;;9.43;1.50;;;;;;;;;;5014425;28;20075;-76
2024/01/01 07:26:55;;;;;;;15.55;2.00;;;;;;;;;;5013805;28;20067;-78
2024/01/01 07:29:20;;;;;;;10.60;2.13;;;;;;;;;;5013745;28;20092;-80
2024/01/01 07:31:45;;;;;;;18.65;2.45;;;;;;;;;;5013673;28;20327;-76
2024/01/01 07:34:10;;;;;;;12.63;2.25;;;;;;;;;;5013693;28;20029;-77
2024/01/01 07:36:36;;;;;;;25.33;3.05;;;;;;;;;;5013515;28;20124;-78
2024/01/01 07:39:01;;;;;;;7.97;1.48;;;;;;;;;;5013948;28;20026;-76
2024/01/01 07:41:26;;;;;;;14.48;2.70;;;;;;;;;;5013692;28;20014;-76
2024/01/01 07:43:51;;;;;;;11.35;1.75;;;;;;;;;;5013969;28;20065;-76
2024/01/01 07:46:17;;;;;;;11.45;1.60;;;;;;;;;;5013758;28;20022;-76
2024/01/01 07:48:42;;;;;;;12.93;1.83;;;;;;;;;;5013580;28;20029;-76
2024/01/01 07:51:07;;;;;;;11.13;2.25;;;;;;;;;;5014613;28;20026;-76
2024/01/01 07:53:33;;;;;;;13.57;2.38;;;;;;;;;;5013745;28;20022;-76
2024/01/01 07:56:01;;;;;;;10.00;2.08;;;;;;;;;;5012551;28;20054;-76
2024/01/01 07:58:27;;;;;;;9.77;2.30;;;;;;;;;;5013564;28;20025;-77
2024/01/01 08:00:55;;;;;;;11.80;2.10;;;;;;;;;;5012108;28;20029;-75
2024/01/01 08:03:21;;;;;;;15.75;2.72;;;;;;;;;;5013659;28;20032;-76
2024/01/01 08:05:46;;;;;;;15.57;2.10;;;;;;;;;;5013721;28;20049;-79
2024/01/01 08:08:11;;;;;;;17.35;1.80;;;;;;;;;;5013484;28;20058;-76
2024/01/01 08:10:37;;;;;;;11.43;2.10;;;;;;;;;;5013010;28;20080;-75
2024/01/01 08:13:03;;;;;;;10.68;1.95;;;;;;;;;;5012028;28;20026;-76
2024/01/01 08:15:28;;;;;;;11.20;2.20;;;;;;;;;;5013322;28;20450;-77
2024/01/01 08:17:53;;;;;;;7.75;2.00;;;;;;;;;;5012882;28;20033;-76
2024/01/01 08:20:19;;;;;;;14.40;2.10;;;;;;;;;;5013593;28;20037;-77
2024/01/01 08:22:44;;;;;;;7.57;1.85;;;;;;;;;;5013726;28;20060;-76
2024/01/01 08:25:10;;;;;;;5.50;1.67;;;;;;;;;;5013696;28;20026;-76
2024/01/01 08:27:35;;;;;;;10.00;1.83;;;;;;;;;;5013560;28;20069;-76
2024/01/01 08:30:00;;;;;;;14.40;2.30;;;;;;;;;;5013424;28;20030;-76
2024/01/01 08:32:25;;;;;;;8.32;1.60;;;;;;;;;;5013699;28;20301;-76
2024/01/01 08:34:51;;;;;;;12.77;2.25;;;;;;;;;;5013900;28;20061;-75
2024/01/01 08:37:16;;;;;;;10.77;1.40;;;;;;;;;;5013936;28;20025;-77
2024/01/01 08:39:41;;;;;;;9.70;1.95;;;;;;;;;;5013278;28;20621;-76
2024/01/01 08:42:07;;;;;;;14.52;2.28;;;;;;;;;;5013096;28;20018;-75
2024/01/01 08:44:32;;;;;;;7.40;1.88;;;;;;;;;;5013455;28;20064;-75
2024/01/01 08:46:57;;;;;;;9.13;1.50;;;;;;;;;;5013062;28;20045;-75
2024/01/01 08:49:23;;;;;;;16.85;2.45;;;;;;;;;;5012973;28;20037;-75
2024/01/01 08:51:48;;;;;;;14.27;2.23;;;;;;;;;;5012976;28;20140;-76
2024/01/01 08:54:16;;;;;;;18.25;2.25;;;;;;;;;;5012893;28;20256;-76
2024/01/01 08:56:42;;;;;;;12.93;1.67;;;;;;;;;;5013047;28;20065;-76
2024/01/01 08:59:09;;;;;;;6.90;1.45;;;;;;;;;;5011941;28;20493;-76
2024/01/01 09:01:35;;;;;;;16.15;2.83;;;;;;;;;;5012635;28;20098;-76
2024/01/01 09:04:04;;;;;;;19.65;2.25;;;;;;;;;;5012541;28;20026;-77
2024/01/01 09:06:29;;;;;;;14.73;2.40;;;;;;;;;;5011922;28;20032;-76
2024/01/01 09:08:54;;;;;;;9.20;1.63;;;;;;;;;;5012000;28;20108;-76
2024/01/01 09:11:20;;;;;;;10.88;1.60;;;;;;;;;;5010720;28;20030;-75
2024/01/01 09:13:45;;;;;;;7.28;1.83;;;;;;;;;;5012148;28;20057;-75
2024/01/01 09:16:10;;;;;;;11.45;2.78;;;;;;;;;;5011843;28;20029;-75
2024/01/01 09:18:35;;;;;;;7.85;1.98;;;;;;;;;;5012040;28;20025;-75
2024/01/01 09:21:00;;;;;;;7.93;1.60;;;;;;;;;;5012102;28;20017;-76
2024/01/01 09:23:27;;;;;;;12.32;1.67;;;;;;;;;;5012577;28;20352;-76
2024/01/01 09:25:54;;;;;;;13.70;2.13;;;;;;;;;;5011854;28;20022;-75
2024/01/01 09:28:19;;;;;;;16.63;2.42;;;;;;;;;;5011881;28;20037;-76
2024/01/01 09:30:45;;;;;;;20.15;2.30;;;;;;;;;;5011889;28;20129;-76
2024/01/01 09:33:10;;;;;;;16.45;2.50;;;;;;;;;;5011732;28;20028;-75
2024/01/01 09:35:36;;;;;;;13.73;2.22;;;;;;;;;;5011818;28;20057;-76
2024/01/01 09:38:03;;;;;;;10.70;1.63;;;;;;;;;;5011577;28;20052;-76
2024/01/01 09:40:28;;;;;;;8.23;1.70;;;;;;;;;;5011724;28;20458;-74
2024/01/01 09:42:53;;;;;;;8.27;1.40;;;;;;;;;;5011733;28;20022;-76
2024/01/01 09:45:19;;;;;;;7.82;1.38;;;;;;;;;;5011414;28;20444;-76
2024/01/01 09:47:44;;;;;;;10.32;1.85;;;;;;;;;;5011685;28;20033;-75
2024/01/01 09:50:10;;;;;;;10.68;1.90;;;;;;;;;;5011245;28;20061;-75
2024/01/01 09:52:38;;;;;;;8.65;1.50;;;;;;;;;;5011296;28;20022;-76
2024/01/01 09:55:03;;;;;;;11.27;1.60;;;;;;;;;;5011530;28;20156;-75
2024/01/01 09:57:28;;;;;;;13.60;1.65;;;;;;;;;;5009833;28;20140;-75
2024/01/01 09:59:54;;;;;;;13.85;2.67;;;;;;;;;;5011100;28;20029;-76
2024/01/01 10:02:22;;;;;;;10.95;2.08;;;;;;;;;;5011381;28;20042;-76
2024/01/01 10:04:47;;;;;;;10.27;1.70;;;;;;;;;;5009699;28;20022;-75
2024/01/01 10:07:24;;;;;;;17.27;3.55;;;;;;;;;;5011448;28;20033;-74
2024/01/01 10:09:49;;;;;;;12.13;2.58;;;;;;;;;;5010208;28;20037;-74
2024/01/01 10:12:16;;;;;;;17.63;2.42;;;;;;;;;;5011299;28;20030;-74
2024/01/01 10:14:46;;;;;;;8.23;1.70;;;;;;;;;;5011651;28;20156;-74
2024/01/01 10:17:12;;;;;;;16.13;2.45;;;;;;;;;;5011166;28;20049;-75
2024/01/01 10:19:49;;;;;;;12.65;1.75;;;;;;;;;;5013144;28;20026;-76
2024/01/01 10:22:14;;;;;;;9.02;2.10;;;;;;;;;;5015404;28;20101;-75
2024/01/01 10:24:39;;;;;;;12.82;2.60;;;;;;;;;;5013591;28;20099;-75
2024/01/01 10:27:05;;;;;;;17.40;2.70;;;;;;;;;;5014962;28;20026;-75
2024/01/01 10:29:33;;;;;;;8.85;1.90;;;;;;;;;;5013676;28;20431;-76
2024/01/01 10:31:58;;;;;;;16.17;2.35;;;;;;;;;;5015072;28;20029;-75
2024/01/01 10:34:26;;;;;;;14.02;1.95;;;;;;;;;;5014843;28;20343;-76
2024/01/01 10:36:51;;;;;;;13.15;1.98;;;;;;;;;;5014885;28;20017;-75
2024/01/01 10:39:17;;;;;;;11.63;2.22;;;;;;;;;;5014618;28;20301;-74
2024/01/01 10:41:43;;;;;;;11.60;1.90;;;;;;;;;;5014629;28;20061;-75
2024/01/01 10:44:09;;;;;;;13.30;2.00;;;;;;;;;;5014538;28;20396;-75
2024/01/01 10:46:40;;;;;;;14.95;2.53;;;;;;;;;;5014512;28;20018;-74
2024/01/01 10:49:15;;;;;;;11.45;2.42;;;;;;;;;;5014815;28;20056;-74
2024/01/01 10:51:59;;;;;;;15.13;2.83;;;;;;;;;;5015563;28;20026;-76
2024/01/01 10:54:45;;;;;;;16.10;2.95;;;;;;;;;;5016045;28;20050;-77
2024/01/01 10:57:29;;;;;;;25.33;2.88;;;;;;;;;;5015703;28;20050;-75
2024/01/01 10:59:55;;;;;;;27.35;3.88;;;;;;;;;;5015503;28;20113;-76
2024/01/01 11:02:20;;;;;;;17.70;2.80;;;;;;;;;;5015138;28;20045;-77
2024/01/01 11:04:48;;;;;;;20.10;2.70;;;;;;;;;;5013781;28;20033;-75
2024/01/01 11:07:13;;;;;;;12.30;2.47;;;;;;;;;;5014076;28;20058;-75
2024/01/01 11:09:38;;;;;;;16.77;2.55;;;;;;;;;;5014075;28;20108;-76
2024/01/01 11:12:05;;;;;;;14.07;2.83;;;;;;;;;;5013951;28;20525;-76
2024/01/01 11:14:31;;;;;;;16.67;2.60;;;;;;;;;;5014194;28;20435;-76
2024/01/01 11:16:57;;;;;;;24.50;2.70;;;;;;;;;;5013804;28;20490;-76
2024/01/01 11:19:36;;;;;;;18.20;2.40;;;;;;;;;;5014621;28;20041;-75
2024/01/01 11:22:19;;;;;;;15.52;2.60;;;;;;;;;;5014701;28;20018;-76
2024/01/01 11:24:45;;;;;;;15.27;3.10;;;;;;;;;;5014038;28;20022;-75
2024/01/01 11:27:27;;;;;;;19.33;2.47;;;;;;;;;;5013726;28;20112;-76
2024/01/01 11:29:52;;;;;;;;;;;;;;;;;;5014645;28;20030;-76
2024/01/01 11:32:18;;;;;;;15.70;2.88;;;;;;;;;;5013508;28;19913;-75
2024/01/01 11:34:43;;;;;;;11.77;2.60;;;;;;;;;;5013606;28;20033;-74
2024/01/01 11:37:08;;;;;;;15.73;2.77;;;;;;;;;;5013902;28;20026;-73
2024/01/01 11:39:33;;;;;;;23.50;2.87;;;;;;;;;;5014203;28;20269;-75
2024/01/01 11:41:59;;;;;;;14.15;2.97;;;;;;;;;;5014691;28;20260;-76
2024/01/01 11:44:25;;;;;;;13.48;2.53;;;;;;;;;;5014316;28;20032;-77
2024/01/01 11:46:51;;;;;;;23.25;3.38;;;;;;;;;;5014481;28;20104;-78
2024/01/01 11:49:17;;;;;;;19.85;2.90;;;;;;;;;;5014125;28;20022;-76
2024/01/01 11:51:57;;;;;;;17.63;2.38;;;;;;;;;;5014304;28;20022;-74
2024/01/01 11:54:26;;;;;;;17.00;2.75;;;;;;;;;;5014072;28;20024;-76
2024/01/01 11:56:54;;;;;;;23.23;3.20;;;;;;;;;;5013432;28;20129;-76
2024/01/01 11:59:21;;;;;;;19.00;3.65;;;;;;;;;;5013563;28;20359;-77
2024/01/01 12:01:47;;;;;;;19.48;3.17;;;;;;;;;;5013616;28;20072;-79
2024/01/01 12:04:12;;;;;;;20.70;3.38;;;;;;;;;;5013283;28;20463;-77
2024/01/01 12:06:38;;;;;;;17.88;2.72;;;;;;;;;;5013384;28;20028;-77
2024/01/01 12:09:04;;;;;;;18.20;3.47;;;;;;;;;;5013370;28;20025;-76
2024/01/01 12:11:29;;;;;;;14.60;2.70;;;;;;;;;;5013161;28;20022;-79
2024/01/01 12:13:55;;;;;;;12.98;2.55;;;;;;;;;;5013159;28;20102;-78
2024/01/01 12:16:20;;;;;;;21.58;3.15;;;;;;;;;;5012924;28;20101;-77
2024/01/01 12:18:46;;;;;;;19.15;3.05;;;;;;;;;;5013243;28;20367;-79
2024/01/01 12:21:11;;;;;;;13.73;3.17;;;;;;;;;;5012981;28;20032;-79
2024/01/01 12:23:36;;;;;;;16.13;3.00;;;;;;;;;;5012167;28;20101;-78
2024/01/01 12:26:03;;;;;;;19.88;3.25;;;;;;;;;;5013285;28;20058;-77
2024/01/01 12:28:28;;;;;;;21.75;2.45;;;;;;;;;;5011314;28;20036;-77
2024/01/01 12:30:53;;;;;;;15.50;2.53;;;;;;;;;;5012627;28;20378;-77
2024/01/01 12:33:19;;;;;;;23.33;3.33;;;;;;;;;;5012653;28;20025;-76
2024/01/01 12:35:44;;;;;;;14.05;3.17;;;;;;;;;;5012649;28;20649;-81
2024/01/01 12:38:09;;;;;;;24.30;3.30;;;;;;;;;;5012922;28;20029;-75
2024/01/01 12:40:34;;;;;;;15.32;2.38;;;;;;;;;;5013018;28;20091;-77
2024/01/01 12:42:59;;;;;;;31.70;6.53;;;;;;;;;;5012495;28;20053;-77
2024/01/01 12:45:25;;;;;;;25.08;10.77;;;;;;;;;;5014171;28;20364;-75
2024/01/01 12:47:51;;;;;;;25.75;5.03;;;;;;;;;;5013379;28;20032;-76
2024/01/01 12:50:17;;;;;;;24.08;9.30;;;;;;;;;;5013552;28;20026;-75
2024/01/01 12:52:42;;;;;;;24.73;9.82;;;;;;;;;;5012798;28;20470;-76
2024/01/01 12:55:08;;;;;;;26.02;4.72;;;;;;;;;;5013951;28;20096;-75
2024/01/01 12:57:33;;;;;;;13.43;2.45;;;;;;;;;;5013419;28;20062;-75
2024/01/01 12:59:58;;;;;;;20.70;4.77;;;;;;;;;;5011629;28;20113;-74
2024/01/01 13:02:23;;;;;;;15.50;3.20;;;;;;;;;;5011318;28;20435;-74
2024/01/01 13:04:48;;;;;;;17.00;3.22;;;;;;;;;;5012673;28;20314;-75
2024/01/01 13:07:14;;;;;;;21.27;3.20;;;;;;;;;;5012568;28;20068;-75
2024/01/01 13:09:39;;;;;;;17.08;3.08;;;;;;;;;;5012537;28;20351;-74
2024/01/01 13:12:04;;;;;;;11.50;3.00;;;;;;;;;;5012390;28;20053;-76
2024/01/01 13:14:31;;;;;;;19.13;3.67;;;;;;;;;;5012247;28;20029;-73
2024/01/01 13:16:57;;;;;;;18.33;3.00;;;;;;;;;;5010688;28;20030;-74
2024/01/01 13:19:26;;;;;;;16.48;3.30;;;;;;;;;;5012206;28;20021;-75
2024/01/01 13:21:52;;;;;;;12.02;3.10;;;;;;;;;;5012303;28;20024;-74
2024/01/01 13:24:17;;;;;;;19.27;3.63;;;;;;;;;;5012281;28;20018;-76
2024/01/01 13:26:42;;;;;;;16.20;2.90;;;;;;;;;;5012760;28;20076;-75
2024/01/01 13:29:07;;;;;;;25.77;3.30;;;;;;;;;;5011802;28;20422;-73
2024/01/01 13:31:33;;;;;;;16.65;2.95;;;;;;;;;;5012028;28;20065;-74
2024/01/01 13:33:58;;;;;;;16.45;3.05;;;;;;;;;;5011926;28;20105;-74
2024/01/01 13:36:23;;;;;;;27.00;4.18;;;;;;;;;;5012948;28;20017;-75
2024/01/01 13:38:48;;;;;;;12.80;2.75;;;;;;;;;;5013003;28;20382;-74
2024/01/01 13:41:14;;;;;;;21.25;3.58;;;;;;;;;;5013322;28;20017;-75
2024/01/01 13:43:39;;;;;;;20.85;3.22;;;;;;;;;;5012866;28;20022;-75
2024/01/01 13:46:04;;;;;;;14.57;2.90;;;;;;;;;;5011875;28;20026;-75
2024/01/01 13:48:30;;;;;;;23.40;3.00;;;;;;;;;;5013090;28;20025;-74
2024/01/01 13:50:56;;;;;;;21.48;4.13;;;;;;;;;;5012655;28;20482;-73
2024/01/01 13:53:21;;;;;;;16.52;3.40;;;;;;;;;;5012193;28;20362;-75
2024/01/01 13:55:47;;;;;;;25.65;4.63;;;;;;;;;;5015392;28;20026;-72
2024/01/01 13:58:13;;;;;;;12.23;2.83;;;;;;;;;;5015577;28;20045;-73
2024/01/01 14:00:40;;;;;;;22.20;4.00;;;;;;;;;;5015942;28;20108;-74
2024/01/01 14:03:05;;;;;;;28.17;3.65;;;;;;;;;;5015556;28;20381;-74
2024/01/01 14:05:31;;;;;;;18.45;3.03;;;;;;;;;;5015493;28;20022;-74
2024/01/01 14:07:56;;;;;;;21.50;2.80;;;;;;;;;;5015739;28;20100;-75
2024/01/01 14:10:22;;;;;;;18.73;2.53;;;;;;;;;;5015408;28;20469;-74
2024/01/01 14:12:48;;;;;;;16.95;2.80;;;;;;;;;;5013887;28;20017;-75
2024/01/01 14:15:16;;;;;;;23.33;2.92;;;;;;;;;;5014210;28;20017;-75
2024/01/01 14:17:41;;;;;;;14.15;3.00;;;;;;;;;;5015104;28;20018;-76